ESNS

Skellefteå Airport

Skellefteå, Sweden
METAR ESNS 152020Z AUTO 27003KT 9999 NCD 21/10 Q1014
Observed Flight Rules
Jul-15 @ 20:20 UTC (39 minutes ago) Visual Flight Rules
Wind Visibility Clouds
270° at 3 knots 10,000+ meters
  • Clear skies
Temperatures Readings
Current 21°C / 70°F
Dewpoint 10°C / 50°F
Humidity 50%
Altimeter 29.94" Hg
Pressure 1014 hPa
Elevation 49
METAR ESNS 152020Z AUTO 27003KT 9999 NCD 21/10 Q1014
Observed Flight Rules
Jul-15 @ 20:20 UTC
(39 minutes ago)
VFR
Wind Visibility
270° at 3 knots 10,000+ meters
Clouds
  • Clear skies
Temperature Dewpoint
21°C / 70°F 10°C / 50°F
Humidity Altimeter Pressure
50% 29.94" Hg 1014 hPa